createdAt,value
2019-02-17T00:02:07.600Z,94.20
2019-02-17T00:04:35.264Z,94.80
2019-02-17T00:07:03.039Z,94.70
2019-02-17T00:09:30.030Z,94.50
2019-02-17T00:11:57.118Z,95.00
2019-02-17T00:14:24.327Z,95.20
2019-02-17T00:16:52.468Z,95.10
2019-02-17T00:19:19.518Z,94.60
2019-02-17T00:21:46.597Z,94.40
2019-02-17T00:24:13.501Z,94.70
2019-02-17T00:26:40.618Z,94.40
2019-02-17T00:29:07.649Z,94.40
2019-02-17T00:31:35.107Z,94.90
2019-02-17T00:34:03.089Z,94.80
2019-02-17T00:36:31.166Z,94.60
2019-02-17T00:38:58.497Z,94.70
2019-02-17T00:41:25.716Z,94.90
2019-02-17T00:43:53.047Z,95.10
2019-02-17T00:46:20.149Z,95.80
2019-02-17T00:48:47.585Z,95.60
2019-02-17T00:51:14.742Z,95.60
2019-02-17T00:53:42.033Z,95.10
2019-02-17T00:56:09.279Z,95.20
2019-02-17T00:58:36.676Z,94.60
2019-02-17T01:01:03.762Z,94.20
2019-02-17T01:03:30.814Z,94.40
2019-02-17T01:05:57.761Z,94.60
2019-02-17T01:08:24.871Z,94.90
2019-02-17T01:10:51.753Z,95.20
2019-02-17T01:13:18.678Z,94.90
2019-02-17T01:15:45.675Z,94.60
2019-02-17T01:18:12.713Z,94.40
2019-02-17T01:20:39.985Z,94.40
2019-02-17T01:23:07.519Z,94.70
2019-02-17T01:25:34.658Z,94.90
2019-02-17T01:28:01.838Z,94.80
2019-02-17T01:30:28.946Z,94.90
2019-02-17T01:32:55.891Z,94.80
2019-02-17T01:35:22.861Z,94.90
2019-02-17T01:37:49.793Z,95.10
2019-02-17T01:40:16.813Z,95.00
2019-02-17T01:42:43.868Z,95.20
2019-02-17T01:45:10.818Z,95.20
2019-02-17T01:47:37.837Z,95.40
2019-02-17T01:50:05.136Z,95.30
2019-02-17T01:52:32.178Z,95.30
2019-02-17T01:54:59.238Z,95.30
2019-02-17T01:57:26.392Z,95.40
2019-02-17T01:59:53.446Z,95.00
2019-02-17T02:02:20.426Z,94.80
2019-02-17T02:04:47.428Z,94.90
2019-02-17T02:07:14.352Z,95.50
2019-02-17T02:09:41.381Z,94.80
2019-02-17T02:12:08.289Z,94.10
2019-02-17T02:14:35.348Z,94.10
2019-02-17T02:17:02.359Z,94.60
2019-02-17T02:19:29.344Z,94.50
2019-02-17T02:21:56.316Z,94.50
2019-02-17T02:24:23.294Z,94.80
2019-02-17T02:26:50.206Z,94.90
2019-02-17T02:29:17.306Z,95.00
2019-02-17T02:31:44.248Z,95.00
2019-02-17T02:34:11.176Z,94.80
2019-02-17T02:36:38.056Z,94.80
2019-02-17T02:39:05.850Z,94.70
2019-02-17T02:41:35.019Z,94.90
2019-02-17T02:44:01.707Z,94.90
2019-02-17T02:46:28.729Z,95.00
2019-02-17T02:48:55.612Z,95.10
2019-02-17T02:51:22.697Z,95.30
2019-02-17T02:53:49.672Z,95.60
2019-02-17T02:56:16.723Z,95.40
2019-02-17T02:58:43.760Z,96.00
2019-02-17T03:01:11.704Z,95.60
2019-02-17T03:03:38.612Z,95.40
2019-02-17T03:06:07.573Z,95.20
2019-02-17T03:08:34.619Z,94.90
2019-02-17T03:11:01.653Z,94.80
2019-02-17T03:13:28.690Z,94.90
2019-02-17T03:15:55.733Z,94.50
2019-02-17T03:18:22.737Z,94.10
2019-02-17T03:20:49.797Z,94.20
2019-02-17T03:23:16.978Z,94.90
2019-02-17T03:25:45.340Z,95.00
2019-02-17T03:28:12.539Z,94.80
2019-02-17T03:30:39.528Z,95.40
2019-02-17T03:33:06.556Z,95.70
2019-02-17T03:35:33.510Z,95.80
2019-02-17T03:38:00.561Z,96.40
2019-02-17T03:40:27.581Z,95.90
2019-02-17T03:42:54.507Z,95.50
2019-02-17T03:45:21.573Z,95.20
2019-02-17T03:47:48.528Z,94.40
2019-02-17T03:50:15.526Z,95.10
2019-02-17T03:52:42.713Z,95.10
2019-02-17T03:55:09.739Z,95.00
2019-02-17T03:57:36.768Z,94.90
2019-02-17T04:00:16.034Z,94.60
2019-02-17T04:02:33.074Z,94.80
2019-02-17T04:05:00.093Z,94.90
2019-02-17T04:07:27.141Z,94.60
2019-02-17T04:09:54.168Z,95.10
2019-02-17T04:12:21.574Z,95.10
2019-02-17T04:14:48.594Z,95.10
2019-02-17T04:17:15.510Z,95.30
2019-02-17T04:19:42.571Z,95.40
2019-02-17T04:22:09.631Z,95.60
2019-02-17T04:24:36.624Z,96.00
2019-02-17T04:27:03.670Z,95.20
2019-02-17T04:29:30.723Z,94.70
2019-02-17T04:31:57.643Z,94.20
2019-02-17T04:34:24.548Z,94.40
2019-02-17T04:36:51.494Z,95.10
2019-02-17T04:39:18.502Z,95.00
2019-02-17T04:41:45.536Z,94.90
2019-02-17T04:44:12.665Z,94.90
2019-02-17T04:46:39.684Z,95.10
2019-02-17T04:49:06.607Z,94.90
2019-02-17T04:51:33.529Z,95.00
2019-02-17T04:54:00.589Z,94.90
2019-02-17T04:56:27.633Z,95.00
2019-02-17T04:58:54.730Z,94.70
2019-02-17T05:01:21.695Z,94.80
2019-02-17T05:03:48.741Z,95.00
2019-02-17T05:06:15.702Z,95.00
2019-02-17T05:08:42.732Z,95.00
2019-02-17T05:11:09.774Z,95.30
2019-02-17T05:13:36.752Z,95.30
2019-02-17T05:16:03.642Z,95.00
2019-02-17T05:18:30.564Z,94.60
2019-02-17T05:20:57.675Z,94.10
2019-02-17T05:23:24.659Z,94.70
2019-02-17T05:25:51.799Z,94.40
2019-02-17T05:28:18.899Z,94.80
2019-02-17T05:30:52.803Z,94.90
2019-02-17T05:33:14.612Z,95.00
2019-02-17T05:35:44.467Z,95.80
2019-02-17T05:38:11.371Z,96.20
2019-02-17T05:40:38.315Z,96.10
2019-02-17T05:43:05.408Z,94.90
2019-02-17T05:45:32.462Z,94.70
2019-02-17T05:47:59.533Z,94.70
2019-02-17T05:50:26.585Z,94.90
2019-02-17T05:52:53.610Z,94.80
2019-02-17T05:55:20.786Z,94.60
2019-02-17T05:57:47.660Z,94.80
2019-02-17T06:00:16.176Z,94.80
2019-02-17T06:02:43.133Z,94.90
2019-02-17T06:05:10.157Z,94.90
2019-02-17T06:07:37.212Z,94.60
2019-02-17T06:10:05.604Z,94.50
2019-02-17T06:12:33.666Z,94.40
2019-02-17T06:15:00.834Z,94.30
2019-02-17T06:17:28.107Z,94.30
2019-02-17T06:19:55.037Z,94.20
2019-02-17T06:22:22.749Z,94.20
2019-02-17T06:24:49.723Z,94.20
2019-02-17T06:27:16.718Z,94.70
2019-02-17T06:29:44.149Z,94.90
2019-02-17T06:32:11.133Z,94.30
2019-02-17T06:34:38.148Z,94.30
2019-02-17T06:37:05.180Z,93.80
2019-02-17T06:39:32.219Z,93.90
2019-02-17T06:41:59.447Z,94.20
2019-02-17T06:44:26.448Z,94.50
2019-02-17T06:46:54.941Z,94.70
2019-02-17T06:49:22.017Z,94.10
2019-02-17T06:51:49.065Z,94.00
2019-02-17T06:54:15.981Z,93.80
2019-02-17T06:56:44.820Z,93.90
2019-02-17T06:59:11.876Z,94.40
2019-02-17T07:01:38.888Z,94.40
2019-02-17T07:04:05.914Z,94.00
2019-02-17T07:06:34.872Z,94.10
2019-02-17T07:09:01.953Z,94.60
2019-02-17T07:11:28.928Z,95.00
2019-02-17T07:13:55.950Z,94.30
2019-02-17T07:16:23.432Z,93.60
2019-02-17T07:18:50.491Z,93.70
2019-02-17T07:21:17.473Z,93.60
2019-02-17T07:23:44.478Z,94.00
2019-02-17T07:26:11.394Z,94.30
2019-02-17T07:28:38.434Z,94.40
2019-02-17T07:31:05.343Z,95.10
2019-02-17T07:33:32.289Z,95.10
2019-02-17T07:35:59.237Z,95.10
2019-02-17T07:38:26.325Z,94.80
2019-02-17T07:40:53.275Z,94.40
2019-02-17T07:43:20.265Z,94.20
2019-02-17T07:45:47.332Z,94.40
2019-02-17T07:48:14.374Z,94.70
2019-02-17T07:50:41.441Z,94.50
2019-02-17T07:53:08.513Z,94.90
2019-02-17T07:55:35.546Z,95.20
2019-02-17T07:58:02.449Z,95.40
2019-02-17T08:00:29.498Z,96.20
2019-02-17T08:02:56.422Z,96.80
2019-02-17T08:05:23.469Z,96.90
2019-02-17T08:07:50.560Z,97.30
2019-02-17T08:10:17.769Z,97.30
2019-02-17T08:12:44.710Z,97.10
2019-02-17T08:15:11.732Z,97.00
2019-02-17T08:17:38.760Z,96.40
2019-02-17T08:20:06.995Z,96.50
2019-02-17T08:22:33.936Z,96.70
2019-02-17T08:25:00.929Z,97.20
2019-02-17T08:27:27.954Z,97.60
2019-02-17T08:29:55.012Z,97.80
2019-02-17T08:32:22.005Z,98.50
2019-02-17T08:34:49.104Z,99.00
2019-02-17T08:37:16.008Z,98.80
2019-02-17T08:39:42.915Z,99.50
2019-02-17T08:42:10.341Z,99.60
2019-02-17T08:44:37.373Z,99.40
2019-02-17T08:47:04.390Z,99.70
2019-02-17T08:49:31.409Z,99.70
2019-02-17T08:51:58.289Z,99.80
2019-02-17T08:54:25.225Z,99.50
2019-02-17T08:56:52.155Z,99.40
2019-02-17T08:59:19.078Z,99.80
2019-02-17T09:01:46.203Z,99.90
2019-02-17T09:04:13.217Z,99.10
2019-02-17T09:06:40.180Z,99.10
2019-02-17T09:09:07.183Z,99.30
2019-02-17T09:11:34.144Z,99.60
2019-02-17T09:14:01.191Z,99.90
2019-02-17T09:16:28.203Z,99.90
2019-02-17T09:18:55.189Z,99.50
2019-02-17T09:21:22.223Z,99.30
2019-02-17T09:23:49.254Z,99.20
2019-02-17T09:26:16.136Z,99.20
2019-02-17T09:28:43.057Z,98.50
2019-02-17T09:31:10.114Z,98.50
2019-02-17T09:33:37.167Z,98.10
2019-02-17T09:36:04.200Z,98.00
2019-02-17T09:38:31.116Z,97.80
2019-02-17T09:40:58.132Z,97.40
2019-02-17T09:43:25.161Z,96.90
2019-02-17T09:45:52.149Z,96.20
2019-02-17T09:48:19.160Z,95.80
2019-02-17T09:50:46.080Z,95.40
2019-02-17T09:53:13.055Z,95.10
2019-02-17T09:55:40.055Z,95.00
2019-02-17T09:58:07.103Z,94.80
2019-02-17T10:00:34.073Z,93.30
2019-02-17T10:03:01.124Z,93.10
2019-02-17T10:05:28.059Z,92.60
2019-02-17T10:07:55.068Z,92.10
2019-02-17T10:10:22.153Z,91.50
2019-02-17T10:12:49.280Z,91.10
2019-02-17T10:15:16.419Z,91.00
2019-02-17T10:17:43.572Z,90.60
2019-02-17T10:20:11.472Z,90.50
2019-02-17T10:22:38.494Z,90.50
2019-02-17T10:25:05.812Z,90.20
2019-02-17T10:27:32.716Z,89.30
2019-02-17T10:29:59.743Z,87.50
2019-02-17T10:32:35.964Z,86.60
2019-02-17T10:34:56.201Z,85.80
2019-02-17T10:37:23.730Z,86.50
2019-02-17T10:39:50.895Z,85.60
2019-02-17T10:42:17.926Z,82.30
2019-02-17T10:44:44.904Z,83.00
2019-02-17T10:47:11.928Z,82.50
2019-02-17T10:49:39.097Z,83.20
2019-02-17T10:52:06.098Z,85.30
2019-02-17T10:54:33.149Z,85.60
2019-02-17T10:57:00.073Z,86.30
2019-02-17T10:59:27.082Z,87.10
2019-02-17T11:01:54.351Z,86.60
2019-02-17T11:04:21.627Z,85.60
2019-02-17T11:06:48.858Z,84.30
2019-02-17T11:09:17.839Z,84.60
2019-02-17T11:11:44.873Z,84.00
2019-02-17T11:14:11.905Z,83.00
2019-02-17T11:16:38.893Z,82.70
2019-02-17T11:19:05.808Z,83.90
2019-02-17T11:21:32.876Z,81.80
2019-02-17T11:24:00.058Z,82.00
2019-02-17T11:26:27.268Z,80.90
2019-02-17T11:28:54.503Z,79.40
2019-02-17T11:31:22.509Z,80.10
2019-02-17T11:33:49.574Z,79.60
2019-02-17T11:36:16.609Z,79.60
2019-02-17T11:38:43.646Z,79.60
2019-02-17T11:41:12.583Z,79.00
2019-02-17T11:43:39.469Z,78.70
2019-02-17T11:46:06.391Z,78.00
2019-02-17T11:48:33.358Z,78.20
2019-02-17T11:51:00.437Z,78.10
2019-02-17T11:53:27.674Z,78.90
2019-02-17T11:55:54.584Z,78.80
2019-02-17T11:58:21.510Z,78.20
2019-02-17T12:00:48.501Z,78.80
2019-02-17T12:03:15.519Z,78.30
2019-02-17T12:05:42.560Z,77.30
2019-02-17T12:08:09.617Z,77.80
2019-02-17T12:10:36.663Z,77.60
2019-02-17T12:13:03.552Z,77.00
2019-02-17T12:15:30.648Z,76.90
2019-02-17T12:17:59.313Z,77.00
2019-02-17T12:20:40.624Z,77.10
2019-02-17T12:23:26.257Z,77.00
2019-02-17T12:25:55.114Z,76.70
2019-02-17T12:28:27.013Z,75.90
2019-02-17T12:30:54.031Z,76.70
2019-02-17T12:33:21.927Z,76.60
2019-02-17T12:35:49.341Z,75.70
2019-02-17T12:38:16.427Z,75.00
2019-02-17T12:40:51.971Z,74.30
2019-02-17T12:43:18.911Z,74.00
2019-02-17T12:45:45.954Z,72.60
2019-02-17T12:48:12.953Z,74.10
2019-02-17T12:50:39.974Z,73.20
2019-02-17T12:53:06.894Z,73.60
2019-02-17T12:55:33.985Z,73.40
2019-02-17T12:58:00.926Z,73.80
2019-02-17T13:00:33.375Z,73.70
2019-02-17T13:03:00.369Z,73.00
2019-02-17T13:05:27.431Z,72.40
2019-02-17T13:07:54.755Z,71.90
2019-02-17T13:10:21.906Z,71.30
2019-02-17T13:12:48.941Z,71.00
2019-02-17T13:15:17.361Z,70.30
2019-02-17T13:17:44.384Z,70.10
2019-02-17T13:20:11.771Z,70.40
2019-02-17T13:22:38.885Z,70.50
2019-02-17T13:25:07.494Z,70.70
2019-02-17T13:27:34.675Z,70.20
2019-02-17T13:30:01.959Z,70.10
2019-02-17T13:32:28.995Z,70.50
2019-02-17T13:34:55.979Z,70.80
2019-02-17T13:37:23.036Z,70.30
2019-02-17T13:39:50.052Z,70.10
2019-02-17T13:42:17.043Z,69.60
2019-02-17T13:44:44.096Z,68.90
2019-02-17T13:47:10.985Z,69.30
2019-02-17T13:49:37.946Z,68.40
2019-02-17T13:52:04.836Z,68.20
2019-02-17T13:54:31.866Z,68.80
2019-02-17T13:56:58.885Z,68.10
2019-02-17T13:59:25.923Z,68.10
2019-02-17T14:01:52.993Z,68.20
2019-02-17T14:04:20.417Z,68.10
2019-02-17T14:06:47.440Z,68.20
2019-02-17T14:09:14.917Z,68.90
2019-02-17T14:11:41.960Z,67.70
2019-02-17T14:14:09.304Z,67.20
2019-02-17T14:16:36.458Z,66.70
2019-02-17T14:19:04.686Z,66.80
2019-02-17T14:21:32.306Z,66.20
2019-02-17T14:23:59.262Z,66.80
2019-02-17T14:26:26.348Z,67.50
2019-02-17T14:28:53.292Z,68.20
2019-02-17T14:31:20.484Z,68.10
2019-02-17T14:33:47.626Z,67.60
2019-02-17T14:36:14.629Z,66.50
2019-02-17T14:38:41.717Z,66.20
2019-02-17T14:41:08.778Z,66.70
2019-02-17T14:43:35.834Z,66.30
2019-02-17T14:46:02.889Z,66.20
2019-02-17T14:48:29.908Z,66.30
2019-02-17T14:50:56.882Z,65.80
2019-02-17T14:53:23.952Z,65.70
2019-02-17T14:55:51.468Z,64.50
2019-02-17T14:58:18.630Z,64.90
2019-02-17T15:00:45.644Z,63.70
2019-02-17T15:03:12.718Z,63.80
2019-02-17T15:05:39.727Z,63.20
2019-02-17T15:08:06.740Z,63.00
2019-02-17T15:10:33.768Z,63.20
2019-02-17T15:13:00.705Z,64.00
2019-02-17T15:15:31.928Z,63.40
2019-02-17T15:17:58.988Z,63.40
2019-02-17T15:20:26.055Z,63.80
2019-02-17T15:22:53.106Z,63.50
2019-02-17T15:25:20.195Z,63.50
2019-02-17T15:27:47.081Z,63.50
2019-02-17T15:30:14.068Z,64.70
2019-02-17T15:32:41.021Z,64.70
2019-02-17T15:35:08.283Z,66.20
2019-02-17T15:37:35.276Z,67.00
2019-02-17T15:40:02.294Z,66.70
2019-02-17T15:42:29.345Z,67.60
2019-02-17T15:44:56.291Z,67.80
2019-02-17T15:47:23.280Z,68.10
2019-02-17T15:49:50.430Z,68.10
2019-02-17T15:52:17.450Z,68.10
2019-02-17T15:54:44.762Z,68.00
2019-02-17T15:57:11.844Z,67.90
2019-02-17T15:59:38.960Z,68.00
2019-02-17T16:02:05.954Z,67.90
2019-02-17T16:04:32.860Z,68.00
2019-02-17T16:07:00.058Z,68.60
2019-02-17T16:09:30.033Z,68.90
2019-02-17T16:11:57.014Z,69.00
2019-02-17T16:14:24.127Z,69.00
2019-02-17T16:16:51.107Z,69.20
2019-02-17T16:19:18.073Z,69.20
2019-02-17T16:21:45.013Z,69.40
2019-02-17T16:24:12.124Z,70.10
2019-02-17T16:26:39.145Z,71.10
2019-02-17T16:29:06.212Z,72.20
2019-02-17T16:31:33.200Z,72.30
2019-02-17T16:34:00.328Z,72.50
2019-02-17T16:36:27.301Z,72.70
2019-02-17T16:38:54.408Z,73.50
2019-02-17T16:41:21.677Z,74.10
2019-02-17T16:43:48.654Z,75.40
2019-02-17T16:46:15.742Z,76.00
2019-02-17T16:48:42.665Z,76.60
2019-02-17T16:51:09.776Z,77.00
2019-02-17T16:53:36.765Z,76.90
2019-02-17T16:56:03.738Z,76.80
2019-02-17T16:58:30.870Z,77.70
2019-02-17T17:00:57.936Z,78.00
2019-02-17T17:03:24.883Z,78.80
2019-02-17T17:05:51.915Z,79.70
2019-02-17T17:08:18.972Z,80.90
2019-02-17T17:10:46.049Z,80.90
2019-02-17T17:13:13.111Z,80.90
2019-02-17T17:15:40.021Z,80.90
2019-02-17T17:18:06.962Z,80.60
2019-02-17T17:20:33.945Z,81.40
2019-02-17T17:23:00.848Z,82.20
2019-02-17T17:25:27.809Z,82.10
2019-02-17T17:27:54.838Z,82.60
2019-02-17T17:30:21.803Z,82.80
2019-02-17T17:32:48.756Z,82.50
2019-02-17T17:35:15.897Z,83.20
2019-02-17T17:37:42.813Z,83.90
2019-02-17T17:40:10.414Z,84.80
2019-02-17T17:42:37.372Z,84.80
2019-02-17T17:45:05.259Z,85.00
2019-02-17T17:47:32.388Z,86.20
2019-02-17T17:49:59.313Z,86.70
2019-02-17T17:52:26.300Z,86.50
2019-02-17T17:54:53.309Z,86.50
2019-02-17T17:57:20.273Z,87.50
2019-02-17T17:59:47.494Z,86.30
2019-02-17T18:02:14.499Z,86.20
2019-02-17T18:04:41.510Z,86.70
2019-02-17T18:07:08.528Z,87.10
2019-02-17T18:09:35.814Z,87.60
2019-02-17T18:12:03.193Z,87.40
2019-02-17T18:14:30.431Z,87.50
2019-02-17T18:16:58.809Z,88.10
2019-02-17T18:19:25.835Z,87.50
2019-02-17T18:21:53.309Z,88.00
2019-02-17T18:24:20.964Z,87.80
2019-02-17T18:26:48.407Z,87.30
2019-02-17T18:29:16.295Z,87.20
2019-02-17T18:31:43.491Z,87.90
2019-02-17T18:34:10.717Z,87.70
2019-02-17T18:36:38.201Z,87.60
2019-02-17T18:39:05.608Z,88.00
2019-02-17T18:41:32.650Z,88.50
2019-02-17T18:44:00.814Z,89.40
2019-02-17T18:46:27.804Z,89.10
2019-02-17T18:48:55.072Z,89.40
2019-02-17T18:51:22.323Z,89.60
2019-02-17T18:53:49.578Z,89.90
2019-02-17T18:56:17.922Z,90.10
2019-02-17T18:58:45.311Z,90.50
2019-02-17T19:01:12.642Z,90.20
2019-02-17T19:03:40.070Z,90.20
2019-02-17T19:06:07.361Z,90.70
2019-02-17T19:08:34.680Z,90.40
2019-02-17T19:11:01.678Z,90.60
2019-02-17T19:13:29.201Z,90.90
2019-02-17T19:15:56.728Z,90.90
2019-02-17T19:18:23.749Z,90.90
2019-02-17T19:20:50.794Z,90.90
2019-02-17T19:23:17.834Z,90.90
2019-02-17T19:25:44.869Z,90.90
2019-02-17T19:28:12.226Z,90.60
2019-02-17T19:30:39.359Z,90.80
2019-02-17T19:33:06.462Z,90.80
2019-02-17T19:35:41.466Z,91.60
2019-02-17T19:38:02.666Z,91.50
2019-02-17T19:40:29.795Z,90.80
2019-02-17T19:42:56.974Z,91.20
2019-02-17T19:45:24.508Z,90.90
2019-02-17T19:47:52.134Z,91.60
2019-02-17T19:50:19.684Z,91.30
2019-02-17T19:52:47.666Z,91.50
2019-02-17T19:55:14.987Z,91.60
2019-02-17T19:57:42.148Z,92.00
2019-02-17T20:00:18.684Z,91.80
2019-02-17T20:03:04.788Z,91.50
2019-02-17T20:05:52.354Z,91.50
2019-02-17T20:08:20.333Z,91.20
2019-02-17T20:10:47.458Z,91.50
2019-02-17T20:13:14.748Z,91.50
2019-02-17T20:15:41.857Z,91.60
2019-02-17T20:18:09.006Z,91.90
2019-02-17T20:20:36.786Z,92.10
2019-02-17T20:23:04.409Z,92.40
2019-02-17T20:25:31.710Z,91.50
2019-02-17T20:27:59.238Z,91.20
2019-02-17T20:30:26.703Z,91.30
2019-02-17T20:33:02.775Z,91.30
2019-02-17T20:35:30.515Z,91.70
2019-02-17T20:37:58.664Z,91.30
2019-02-17T20:40:29.680Z,91.70
2019-02-17T20:42:58.253Z,91.50
2019-02-17T20:45:30.142Z,91.50
2019-02-17T20:47:57.095Z,91.70
2019-02-17T20:50:24.462Z,91.70
2019-02-17T20:52:51.681Z,91.80
2019-02-17T20:55:19.302Z,91.80
2019-02-17T20:57:46.413Z,92.10
2019-02-17T21:00:13.826Z,91.70
2019-02-17T21:02:40.972Z,92.00
2019-02-17T21:05:08.581Z,92.20
2019-02-17T21:07:35.613Z,92.30
2019-02-17T21:10:03.085Z,92.20
2019-02-17T21:12:34.712Z,92.00
2019-02-17T21:15:01.947Z,92.30
2019-02-17T21:17:29.109Z,92.00
2019-02-17T21:19:56.075Z,92.20
2019-02-17T21:22:23.237Z,92.20
2019-02-17T21:24:50.478Z,92.20
2019-02-17T21:27:21.135Z,92.30
2019-02-17T21:29:48.341Z,92.30
2019-02-17T21:32:15.740Z,92.30
2019-02-17T21:34:43.412Z,92.30
2019-02-17T21:37:10.604Z,92.30
2019-02-17T21:39:37.693Z,92.30
2019-02-17T21:42:05.333Z,92.30
2019-02-17T21:44:32.460Z,92.30
2019-02-17T21:46:59.509Z,92.30
2019-02-17T21:49:26.634Z,92.60
2019-02-17T21:51:53.694Z,92.50
2019-02-17T21:54:20.676Z,92.70
2019-02-17T21:56:47.763Z,92.40
2019-02-17T21:59:14.973Z,92.40
2019-02-17T22:01:42.022Z,92.50
2019-02-17T22:04:08.991Z,92.70
2019-02-17T22:06:36.444Z,92.70
2019-02-17T22:09:05.132Z,92.70
2019-02-17T22:11:32.213Z,93.70
2019-02-17T22:13:59.461Z,93.60
2019-02-17T22:16:26.870Z,93.40
2019-02-17T22:18:53.870Z,93.50
2019-02-17T22:21:20.961Z,93.10
2019-02-17T22:23:48.321Z,93.00
2019-02-17T22:26:15.600Z,93.00
2019-02-17T22:28:42.613Z,92.70
2019-02-17T22:31:09.666Z,92.80
2019-02-17T22:33:36.976Z,92.80
2019-02-17T22:36:04.271Z,92.60
2019-02-17T22:38:31.282Z,92.50
2019-02-17T22:40:58.361Z,92.80
2019-02-17T22:43:25.253Z,92.80
2019-02-17T22:45:52.239Z,92.90
2019-02-17T22:48:19.619Z,92.90
2019-02-17T22:50:46.690Z,93.00
2019-02-17T22:53:13.705Z,93.20
2019-02-17T22:55:40.731Z,93.20
2019-02-17T22:58:07.781Z,93.50
2019-02-17T23:00:46.993Z,93.20
2019-02-17T23:03:14.106Z,93.10
2019-02-17T23:05:42.313Z,93.40
2019-02-17T23:08:09.367Z,93.60
2019-02-17T23:10:36.514Z,93.60
2019-02-17T23:13:03.810Z,93.40
2019-02-17T23:15:30.757Z,93.60
2019-02-17T23:17:58.009Z,93.30
2019-02-17T23:20:25.059Z,93.90
2019-02-17T23:22:52.109Z,93.90
2019-02-17T23:25:19.640Z,93.60
2019-02-17T23:27:46.725Z,93.70
2019-02-17T23:30:13.796Z,93.40
2019-02-17T23:32:40.895Z,93.50
2019-02-17T23:35:07.981Z,93.10
2019-02-17T23:37:35.105Z,93.80
2019-02-17T23:40:03.978Z,93.60
2019-02-17T23:42:31.160Z,93.40
2019-02-17T23:44:58.305Z,93.20
2019-02-17T23:47:25.409Z,93.30
2019-02-17T23:49:53.476Z,93.40
2019-02-17T23:52:20.894Z,93.30
2019-02-17T23:54:47.907Z,93.80
2019-02-17T23:57:14.988Z,93.40
2019-02-17T23:59:42.001Z,93.40
